Main page
METAR-TAF:

METAR-TAF

Airports :

Sedalia Regional Airport

Sedalia, Missouri, United States

latitude: 38-42-44N, longitude: 093-10-28W, elevation: 909 ft

Current weather observation

The report was made 1 hour and 6 minutes ago, at 22:53 UTC
Wind 9 mph from the Southeast
Temperature 88°F
Humidity 55%
Pressure 30.16 in. Hg
Visibility: 10 miles
Few clouds at a height of 4400 ft

METAR: KDMO 192253Z AUTO 14008KT 10SM FEW044 31/21 A3016 RMK AO2 SLP203 T03060206

Time: 18:59 (23:59 UTC)


TAF: missing

Weather observations and forecasts of more than 4000 airports (METAR and TAF reports).

The available stations are represented by yellow and red dots on the map.

Hover mouse over dot to see the name of the station.

Then click to see weather observations and forecasts.

To change the map : click on the green buttons with a black cross to zoom in, on the green button with a dash to zoom out, or on the green arrows for adjacent maps.


METAR-TAF: